Concord, Massachusetts
Current Conditions -  °F | °C
As of 12:56 AM on Saturday 20 Dec 2014 (Local Time) from KBED Reporting Station
Clear Clear  
Wind Chill: 24°   Ceiling: Unl
Heat Index: 24°   Visibility: 10mi
Dew Point: 19°   Wind: 3mph
Humidity: 81%   Direction: 290°WNW
Pressure: 30.16"   Gusts: NA
Location:  42.46°N, 71.35°W
Report Text: KBED 200556Z 29003KT 10SM CLR M04/M07 A3016 RMK AO2 SLP229 T10441072 11022 21044 53014
Loading
Personal Weather Stations






























Interactive Weather Map New forecast layout! Learn more

10-Day Weather Forecast

Advertisements
Track Severe Weather on mobile